Terminal Aerodrome Forecast
Issued by NWS

Home | Current Version | Previous Version | Text Only | Print | Product List | Glossary On
Versions: 1 2 3 4 5 6 7 8 9 10 11 12 13
000
FTUS45 KFGZ 252300
TAFPRC
TAF
KPRC 252333Z 2600/2624 21015G26KT P6SM -SHRA SCT025 OVC070
      TEMPO 2601/2605 2SM -SHRA BR BKN020
     FM261000 24006KT P6SM VCSH SCT020 BKN030 OVC050
      TEMPO 2610/2614 4SM -SHRA BKN020
     FM261600 29010KT P6SM SCT030 BKN050=

USA.gov is the U.S. government's official web portal to all federal, state and local government web resources and services.